KCID/CID METAR and TAF weather

Enter ICAO airport designator
Station Type Date Time Source
KCID METAR 2018/12/13 16:21 UTC NOAA

KCID 131621Z 11009KT 5SM BR FEW007 OVC055 01/M01 A2997 RMK AO2 T00061006


Station Type Date Time Source
KCID Decoded METAR 2018/12/13 16:21 UTC NOAA

CEDAR RAPIDS AIRPORT, IA, United States (KCID) 41-53N 91-43W
Dec 13, 2018 - 11:21 AM EST / 2018.12.13 1621 UTC
Wind: from the ESE (110 degrees) at 10 MPH (9 KT):0
Visibility: 5 mile(s):0
Sky conditions: overcast
Weather: mist
Temperature: 33.1 F (0.6 C)
Windchill: 24 F (-4 C):1
Dew Point: 30.9 F (-0.6 C)
Relative Humidity: 91%
Pressure (altimeter): 29.97 in. Hg (1014 hPa)
ob: KCID 131621Z 11009KT 5SM BR FEW007 OVC055 01/M01 A2997 RMK AO2 T00061006
cycle: 16

Station Type Date Time Source
KCID TAF 2018/12/13 16:58 UTC NOAA

TAF
AMD KCID 131557Z 1316/1412 12007KT 4SM BR BKN035
FM131800 10006KT 4SM BR OVC020
FM132100 36009KT P6SM OVC015
FM140600 35009KT P6SM SCT020


Example: see airport list